Time;durP1;ratioP1;P1;durP2;ratioP2;P2;SDS_P1;SDS_P2;PMS_P1;PMS_P2;Temp;Humidity;BMP_temperature;BMP_pressure;BME280_temperature;BME280_humidity;BME280_pressure;Samples;Min_cycle;Max_cycle;Signal;HPM_P1;HPM_P2
2024/01/28 00:01:20;;;;;;;;;7.00;6.80;;;;;0.06;81.93;101635.84;5096583;28;8921;-54
2024/01/28 00:03:48;;;;;;;;;1.40;1.00;;;;;0.03;82.30;101628.00;5096200;28;8825;-54
2024/01/28 00:06:17;;;;;;;;;9.20;9.20;;;;;0.00;82.00;101628.03;5096194;28;8830;-56
2024/01/28 00:08:44;;;;;;;;;3.40;3.20;;;;;-0.02;82.50;101632.44;5096221;28;8829;-54
2024/01/28 00:11:13;;;;;;;;;9.00;9.00;;;;;-0.03;82.65;101621.97;5096523;28;8826;-57
2024/01/28 00:13:40;;;;;;;;;8.00;7.60;;;;;-0.03;81.92;101623.72;5095694;28;8859;-54
2024/01/28 00:16:08;;;;;;;;;9.20;8.60;;;;;-0.06;82.03;101622.00;5096453;28;8955;-55
2024/01/28 00:18:36;;;;;;;;;9.40;7.80;;;;;-0.05;82.49;101613.25;5096444;28;8819;-54
2024/01/28 00:21:04;;;;;;;;;4.80;4.00;;;;;-0.06;82.60;101614.16;5096452;28;8823;-56
2024/01/28 00:23:32;;;;;;;;;4.00;3.80;;;;;-0.03;82.02;101608.03;5095708;28;8822;-56
2024/01/28 00:26:01;;;;;;;;;9.00;6.40;;;;;-0.01;82.16;101605.38;5094397;28;8834;-54
2024/01/28 00:28:29;;;;;;;;;12.00;9.00;;;;;0.01;82.33;101602.75;5094046;28;9478;-56
2024/01/28 00:30:57;;;;;;;;;3.60;3.60;;;;;0.04;81.83;101597.47;5094989;28;9506;-56
2024/01/28 00:33:25;;;;;;;;;5.20;5.20;;;;;0.07;81.83;101594.78;5096226;28;8956;-57
2024/01/28 00:35:53;;;;;;;;;9.60;8.20;;;;;0.09;82.12;101593.91;5094419;28;8806;-56
2024/01/28 00:38:21;;;;;;;;;9.00;9.00;;;;;0.09;81.79;101586.03;5094463;28;8835;-56
2024/01/28 00:40:48;;;;;;;;;8.80;6.80;;;;;0.11;82.12;101588.66;5094869;28;8971;-57
2024/01/28 00:43:16;;;;;;;;;9.60;9.00;;;;;0.10;82.38;101586.91;5095310;28;9078;-56
2024/01/28 00:45:44;;;;;;;;;9.20;9.00;;;;;0.06;82.06;101583.47;5093547;28;8947;-57
2024/01/28 00:48:12;;;;;;;;;6.20;6.20;;;;;0.03;81.67;101580.88;5095315;28;9483;-57
2024/01/28 00:50:40;;;;;;;;;12.40;12.40;;;;;-0.01;82.17;101576.56;5094976;28;8831;-56
2024/01/28 00:53:07;;;;;;;;;10.00;8.20;;;;;-0.03;82.02;101578.34;5095647;28;8828;-54
2024/01/28 00:55:35;;;;;;;;;7.40;4.40;;;;;-0.07;82.09;101574.00;5095152;28;8832;-55
2024/01/28 00:58:03;;;;;;;;;9.60;9.00;;;;;-0.09;82.45;101574.06;5094339;28;8938;-54
2024/01/28 01:00:31;;;;;;;;;6.40;6.40;;;;;-0.10;81.79;101569.69;5093741;28;8831;-57
2024/01/28 01:02:59;;;;;;;;;8.60;7.00;;;;;-0.12;81.76;101569.72;5094667;28;9509;-57
2024/01/28 01:05:27;;;;;;;;;4.00;3.40;;;;;-0.10;82.55;101567.09;5095653;28;8920;-56
2024/01/28 01:07:54;;;;;;;;;6.20;6.20;;;;;-0.10;82.48;101567.09;5093676;28;8843;-57
2024/01/28 01:10:25;;;;;;;;;7.00;6.00;;;;;-0.09;81.86;101560.97;5094900;28;8843;-56
2024/01/28 01:12:53;;;;;;;;;9.20;7.80;;;;;-0.09;82.75;101563.59;5095249;28;8808;-56
2024/01/28 01:15:21;;;;;;;;;6.80;6.80;;;;;-0.08;82.45;101553.94;5094162;28;8833;-55
2024/01/28 01:17:50;;;;;;;;;8.20;6.60;;;;;-0.06;82.41;101567.03;5094066;28;8842;-55
2024/01/28 01:20:18;;;;;;;;;3.20;2.80;;;;;-0.06;81.83;101565.25;5093557;28;8945;-57
2024/01/28 01:22:45;;;;;;;;;5.60;4.00;;;;;-0.03;82.53;101561.75;5095132;28;8824;-54
2024/01/28 01:25:14;;;;;;;;;4.80;3.40;;;;;-0.05;81.72;101559.13;5095224;28;8831;-57
2024/01/28 01:27:45;;;;;;;;;6.00;5.20;;;;;-0.06;82.05;101573.13;5094737;28;8831;-57
2024/01/28 01:30:13;;;;;;;;;6.40;5.60;;;;;-0.06;81.67;101580.97;5095553;28;8861;-57
2024/01/28 01:32:41;;;;;;;;;3.80;2.80;;;;;-0.08;82.23;101574.91;5095305;28;8946;-57
2024/01/28 01:35:08;;;;;;;;;6.00;6.00;;;;;-0.10;82.48;101567.09;5094800;28;8827;-54
2024/01/28 01:37:37;;;;;;;;;4.00;3.60;;;;;-0.13;82.18;101566.22;5098168;28;8839;-57
2024/01/28 01:40:04;;;;;;;;;5.20;2.60;;;;;-0.12;82.42;101564.47;5098929;28;8818;-57
2024/01/28 01:42:32;;;;;;;;;5.20;4.80;;;;;-0.07;82.17;101562.69;5099650;28;8812;-57
2024/01/28 01:45:00;;;;;;;;;7.40;6.20;;;;;-0.07;81.99;101562.69;5099045;28;8938;-57
2024/01/28 01:47:28;;;;;;;;;6.20;6.00;;;;;-0.06;82.41;101557.41;5099438;28;9568;-56
2024/01/28 01:49:55;;;;;;;;;3.00;1.00;;;;;-0.07;82.19;101547.84;5098826;28;8903;-56
2024/01/28 01:52:23;;;;;;;;;3.80;3.40;;;;;-0.12;81.87;101556.63;5099776;28;8922;-57
2024/01/28 01:54:51;;;;;;;;;6.60;6.60;;;;;-0.14;82.49;101553.16;5099325;28;8952;-56
2024/01/28 01:57:19;;;;;;;;;4.00;4.00;;;;;-0.15;82.50;101553.16;5099520;28;8944;-57
2024/01/28 01:59:47;;;;;;;;;1.40;1.00;;;;;-0.17;81.97;101557.56;5099214;28;8849;-57
2024/01/28 02:02:15;;;;;;;;;3.60;3.60;;;;;-0.17;82.13;101547.09;5099156;28;9480;-57
2024/01/28 02:04:43;;;;;;;;;3.80;3.80;;;;;-0.16;81.91;101548.81;5098060;28;8849;-56
2024/01/28 02:07:11;;;;;;;;;3.00;3.00;;;;;-0.17;82.04;101549.72;5099014;28;9491;-56
2024/01/28 02:09:39;;;;;;;;;1.40;1.40;;;;;-0.14;82.06;101554.91;5098746;28;8834;-56
2024/01/28 02:12:06;;;;;;;;;0.00;0.00;;;;;-0.08;81.93;101547.84;5098539;28;8834;-57
2024/01/28 02:14:34;;;;;;;;;1.00;1.00;;;;;-0.06;82.37;101544.31;5099062;28;8822;-57
2024/01/28 02:17:02;;;;;;;;;2.20;1.80;;;;;-0.01;82.12;101542.53;5098041;28;8965;-57
2024/01/28 02:19:30;;;;;;;;;0.00;0.00;;;;;0.03;82.21;101544.22;5098128;28;8814;-57
2024/01/28 02:21:58;;;;;;;;;0.80;0.80;;;;;0.05;82.07;101541.59;5098660;28;8856;-57
2024/01/28 02:24:26;;;;;;;;;1.00;1.00;;;;;0.10;81.35;101535.41;5098815;28;8825;-57
2024/01/28 02:26:53;;;;;;;;;2.60;2.60;;;;;0.17;81.65;101541.47;5098467;28;8841;-56
2024/01/28 02:29:21;;;;;;;;;1.00;0.80;;;;;0.17;81.25;101538.84;5098592;28;8833;-57
2024/01/28 02:31:49;;;;;;;;;1.80;1.80;;;;;0.18;81.25;101538.78;5097886;28;9008;-55
2024/01/28 02:34:17;;;;;;;;;1.80;1.80;;;;;0.20;81.13;101531.81;5098159;28;8956;-55
2024/01/28 02:36:45;;;;;;;;;3.00;3.00;;;;;0.22;81.38;101527.41;5098597;28;8841;-56
2024/01/28 02:39:13;;;;;;;;;3.00;3.00;;;;;0.27;81.36;101525.63;5098376;28;8836;-55
2024/01/28 02:41:41;;;;;;;;;3.40;3.40;;;;;0.28;81.28;101514.25;5098166;28;8864;-57
2024/01/28 02:44:09;;;;;;;;;1.00;1.00;;;;;0.23;81.51;101510.81;5097909;28;8841;-54
2024/01/28 02:46:37;;;;;;;;;2.40;2.20;;;;;0.18;81.43;101498.66;5098212;28;8860;-57
2024/01/28 02:49:04;;;;;;;;;1.00;1.00;;;;;0.16;81.74;101501.31;5097795;28;8829;-56
2024/01/28 02:51:32;;;;;;;;;0.00;0.00;;;;;0.16;81.40;101495.22;5098173;28;8822;-55
2024/01/28 02:54:00;;;;;;;;;1.40;1.40;;;;;0.17;81.64;101489.09;5096598;28;8846;-56
2024/01/28 02:56:28;;;;;;;;;0.40;0.40;;;;;0.16;81.27;101490.81;5098325;28;8836;-57
2024/01/28 02:58:55;;;;;;;;;4.00;3.00;;;;;0.16;81.53;101482.97;5098581;28;8816;-54
2024/01/28 03:01:23;;;;;;;;;2.40;1.80;;;;;0.19;81.36;101490.81;5098096;28;8908;-57
2024/01/28 03:03:51;;;;;;;;;0.60;0.60;;;;;0.23;81.39;101476.78;5097994;28;8857;-56
2024/01/28 03:06:19;;;;;;;;;1.00;1.00;;;;;0.26;81.07;101474.13;5097922;28;8914;-54
2024/01/28 03:08:47;;;;;;;;;1.00;1.00;;;;;0.28;81.60;101468.84;5097380;28;8833;-55
2024/01/28 03:11:15;;;;;;;;;1.00;1.00;;;;;0.29;81.38;101468.84;5097377;28;8849;-57
2024/01/28 03:13:42;;;;;;;;;0.80;0.80;;;;;0.28;82.02;101466.22;5097910;28;8841;-56
2024/01/28 03:16:10;;;;;;;;;3.00;2.20;;;;;0.28;81.49;101458.38;5097809;28;9529;-56
2024/01/28 03:18:38;;;;;;;;;1.00;1.00;;;;;0.30;81.54;101452.22;5098038;28;8806;-56
2024/01/28 03:21:06;;;;;;;;;0.60;0.60;;;;;0.32;80.80;101455.69;5088950;28;8875;-56
2024/01/28 03:23:34;;;;;;;;;1.00;1.00;;;;;0.32;80.78;101460.91;5097385;28;8830;-56
2024/01/28 03:26:02;;;;;;;;;1.00;1.00;;;;;0.31;81.16;101467.06;5096914;28;8826;-55
2024/01/28 03:28:31;;;;;;;;;1.00;1.00;;;;;0.30;81.27;101470.56;5096932;28;8834;-55
2024/01/28 03:30:59;;;;;;;;;0.60;0.60;;;;;0.29;80.64;101474.06;5096839;28;8838;-56
2024/01/28 03:33:26;;;;;;;;;1.40;1.00;;;;;0.29;81.33;101481.94;5097491;28;9479;-56
2024/01/28 03:35:54;;;;;;;;;3.00;3.00;;;;;0.32;81.04;101475.78;5097242;28;8826;-56
2024/01/28 03:38:22;;;;;;;;;4.00;4.00;;;;;0.33;81.11;101475.75;5096559;28;8834;-54
2024/01/28 03:40:50;;;;;;;;;3.00;3.00;;;;;0.37;81.00;101473.94;5096043;28;9519;-57
2024/01/28 03:43:18;;;;;;;;;1.00;1.00;;;;;0.39;80.78;101470.44;5096507;28;8834;-56
2024/01/28 03:45:46;;;;;;;;;0.60;0.60;;;;;0.42;80.84;101467.78;5095310;28;8840;-55
2024/01/28 03:48:13;;;;;;;;;0.40;0.00;;;;;0.44;81.10;101468.63;5096441;28;8834;-56
2024/01/28 03:50:41;;;;;;;;;1.00;1.00;;;;;0.47;80.88;101452.00;5088168;28;8919;-56
2024/01/28 03:53:09;;;;;;;;;2.20;1.00;;;;;0.49;80.85;101456.34;5056165;28;8834;-55
2024/01/28 03:55:37;;;;;;;;;1.40;1.00;;;;;0.49;80.83;101450.22;5055782;28;8848;-55
2024/01/28 03:58:04;;;;;;;;;3.00;3.00;;;;;0.45;81.17;101453.75;5055884;28;8862;-57
2024/01/28 04:00:33;;;;;;;;;5.40;4.60;;;;;0.39;80.56;101462.56;5054678;28;9522;-55
2024/01/28 04:03:01;;;;;;;;;3.00;3.00;;;;;0.31;80.91;101456.56;5055614;28;8907;-55
2024/01/28 04:05:29;;;;;;;;;4.00;4.00;;;;;0.27;81.00;101461.88;5060271;28;8796;-55
2024/01/28 04:07:56;;;;;;;;;4.00;4.00;;;;;0.23;81.23;101452.34;5075659;28;8816;-55
2024/01/28 04:10:24;;;;;;;;;4.80;4.80;;;;;0.19;81.51;101448.03;5076223;28;8832;-56
2024/01/28 04:12:52;;;;;;;;;2.20;2.20;;;;;0.17;81.66;101460.28;5076893;28;8859;-56
2024/01/28 04:15:20;;;;;;;;;2.60;2.60;;;;;0.15;80.99;101455.06;5076090;28;8840;-56
2024/01/28 04:17:48;;;;;;;;;3.00;3.00;;;;;0.12;81.61;101455.13;5089100;28;8846;-56
2024/01/28 04:20:16;;;;;;;;;4.00;3.20;;;;;0.10;81.65;101446.38;5095960;28;8804;-56
2024/01/28 04:22:43;;;;;;;;;2.60;2.20;;;;;0.08;81.83;101445.56;5096190;28;8807;-56
2024/01/28 04:25:11;;;;;;;;;2.60;1.40;;;;;0.06;82.05;101439.47;5095312;28;8835;-56
2024/01/28 04:27:39;;;;;;;;;3.20;3.00;;;;;0.06;81.71;101428.13;5096652;28;8820;-55
2024/01/28 04:30:08;;;;;;;;;3.20;3.20;;;;;0.08;81.57;101434.22;5096958;28;8930;-53
2024/01/28 04:32:36;;;;;;;;;3.80;3.40;;;;;0.07;81.81;101430.72;5096723;28;8840;-54
2024/01/28 04:35:04;;;;;;;;;3.00;3.00;;;;;0.07;81.93;101433.34;5096034;28;9005;-55
2024/01/28 04:37:32;;;;;;;;;8.60;8.60;;;;;0.04;81.92;101435.16;5095484;28;8819;-56
2024/01/28 04:40:00;;;;;;;;;6.60;5.00;;;;;0.02;81.53;101435.16;5095683;28;8938;-54
2024/01/28 04:42:28;;;;;;;;;10.40;9.80;;;;;0.01;81.84;101435.19;5096321;28;8900;-54
2024/01/28 04:44:55;;;;;;;;;9.80;9.80;;;;;0.03;81.42;101433.41;5096152;28;9551;-57
2024/01/28 04:47:23;;;;;;;;;9.40;9.40;;;;;0.01;82.02;101433.44;5096245;28;8835;-57
2024/01/28 04:49:51;;;;;;;;;5.80;4.40;;;;;-0.02;81.48;101436.09;5096164;28;8842;-55
2024/01/28 04:52:19;;;;;;;;;6.60;6.00;;;;;-0.07;81.76;101422.19;5095522;28;8815;-56
2024/01/28 04:54:47;;;;;;;;;7.40;7.40;;;;;-0.08;82.13;101423.97;5095570;28;8827;-55
2024/01/28 04:57:15;;;;;;;;;7.60;6.80;;;;;-0.09;82.18;101427.47;5095784;28;9562;-57
2024/01/28 04:59:43;;;;;;;;;2.60;2.60;;;;;-0.09;82.35;101428.31;5095495;28;8811;-56
2024/01/28 05:02:11;;;;;;;;;3.80;3.80;;;;;-0.09;81.92;101414.41;5095581;28;8942;-57
2024/01/28 05:04:38;;;;;;;;;0.40;0.40;;;;;-0.11;81.94;101419.63;5095610;28;8938;-56
2024/01/28 05:07:06;;;;;;;;;1.00;1.00;;;;;-0.07;81.63;101405.63;5095738;28;8835;-56
2024/01/28 05:09:34;;;;;;;;;0.80;0.80;;;;;-0.05;81.17;101407.31;5094743;28;8916;-57
2024/01/28 05:12:02;;;;;;;;;0.00;0.00;;;;;-0.03;82.07;101397.72;5095397;28;8819;-55
2024/01/28 05:14:29;;;;;;;;;1.00;1.00;;;;;-0.03;81.71;101385.53;5095082;28;8812;-57
2024/01/28 05:16:59;;;;;;;;;1.40;1.40;;;;;-0.05;81.31;101383.75;5095267;28;8836;-57
2024/01/28 05:19:27;;;;;;;;;0.00;0.00;;;;;-0.08;82.03;101378.59;5095758;28;8837;-54
2024/01/28 05:21:55;;;;;;;;;3.20;3.00;;;;;-0.09;81.38;101375.97;5095670;28;8848;-54
2024/01/28 05:24:22;;;;;;;;;3.00;3.00;;;;;-0.11;81.37;101377.75;5094504;28;8902;-57
2024/01/28 05:26:50;;;;;;;;;1.80;1.80;;;;;-0.13;81.51;101377.78;5095044;28;8899;-56
2024/01/28 05:29:18;;;;;;;;;2.20;2.20;;;;;-0.14;82.03;101364.72;5095243;28;8822;-55
2024/01/28 05:31:45;;;;;;;;;0.80;0.80;;;;;-0.12;82.12;101369.03;5094738;28;9487;-57
2024/01/28 05:34:13;;;;;;;;;1.00;1.00;;;;;-0.13;81.90;101356.00;5095193;28;8810;-55
2024/01/28 05:36:41;;;;;;;;;1.40;1.40;;;;;-0.13;81.68;101368.19;5095577;28;8811;-56
2024/01/28 05:39:09;;;;;;;;;2.20;2.20;;;;;-0.16;81.63;101369.09;5095624;28;8815;-56
2024/01/28 05:41:37;;;;;;;;;2.60;2.60;;;;;-0.18;81.83;101359.56;5095086;28;8831;-55
2024/01/28 05:44:05;;;;;;;;;6.00;4.00;;;;;-0.23;82.26;101361.38;5095415;28;8830;-57
2024/01/28 05:46:32;;;;;;;;;2.20;2.20;;;;;-0.23;82.19;101356.97;5095430;28;8820;-57
2024/01/28 05:49:00;;;;;;;;;2.20;1.00;;;;;-0.21;81.60;101359.59;5095863;28;8838;-56
2024/01/28 05:51:28;;;;;;;;;1.80;1.80;;;;;-0.22;81.82;101352.63;5095854;28;8827;-57
2024/01/28 05:53:56;;;;;;;;;0.00;0.00;;;;;-0.23;81.87;101349.13;5095764;28;8823;-57
2024/01/28 05:56:23;;;;;;;;;1.00;0.20;;;;;-0.22;81.50;101347.38;5095455;28;8831;-57
2024/01/28 05:58:51;;;;;;;;;0.60;0.60;;;;;-0.20;81.60;101345.59;5094444;28;8811;-56
2024/01/28 06:01:18;;;;;;;;;1.00;1.00;;;;;-0.18;81.44;101343.88;5095145;28;8820;-57
2024/01/28 06:03:47;;;;;;;;;1.00;0.60;;;;;-0.16;81.86;101347.31;5095249;28;8827;-56
2024/01/28 06:06:15;;;;;;;;;0.40;0.40;;;;;-0.16;81.46;101349.94;5094754;28;9549;-56
2024/01/28 06:08:43;;;;;;;;;1.40;1.40;;;;;-0.18;82.01;101344.72;5094913;28;8876;-57
2024/01/28 06:11:11;;;;;;;;;0.00;0.00;;;;;-0.21;81.59;101349.13;5095147;28;8813;-56
2024/01/28 06:13:38;;;;;;;;;1.00;1.00;;;;;-0.24;81.80;101349.16;5094177;28;8960;-57
2024/01/28 06:16:07;;;;;;;;;1.00;1.00;;;;;-0.27;81.88;101333.50;5095053;28;9911;-57
2024/01/28 06:18:41;;;;;;;;;0.00;0.00;;;;;-0.29;81.66;101333.53;5095539;28;8810;-57
2024/01/28 06:21:09;;;;;;;;;0.60;0.60;;;;;-0.30;81.76;101344.00;5095285;28;8814;-56
2024/01/28 06:23:37;;;;;;;;;0.00;0.00;;;;;-0.33;81.76;101334.44;5097964;28;8895;-56
2024/01/28 06:26:05;;;;;;;;;0.00;0.00;;;;;-0.35;81.53;101330.13;5099060;28;8843;-56
2024/01/28 06:28:33;;;;;;;;;1.80;1.80;;;;;-0.37;82.02;101342.38;5098472;28;8826;-56
2024/01/28 06:31:00;;;;;;;;;0.00;0.00;;;;;-0.39;82.33;101333.69;5098382;28;8817;-57
2024/01/28 06:33:28;;;;;;;;;1.40;1.00;;;;;-0.41;82.27;101325.84;5097991;28;9527;-57
2024/01/28 06:35:56;;;;;;;;;0.00;0.00;;;;;-0.42;81.79;101331.97;5097571;28;9479;-57
2024/01/28 06:38:23;;;;;;;;;0.60;0.60;;;;;-0.40;81.92;101327.56;5098014;28;9466;-57
2024/01/28 06:40:51;;;;;;;;;0.40;0.40;;;;;-0.40;81.65;101326.72;5098129;28;8835;-56
2024/01/28 06:43:19;;;;;;;;;0.00;0.00;;;;;-0.41;81.62;101335.44;5098525;28;8839;-56
2024/01/28 06:45:47;;;;;;;;;1.80;0.40;;;;;-0.41;82.02;101340.66;5097948;28;8859;-56
2024/01/28 06:48:15;;;;;;;;;0.00;0.00;;;;;-0.42;81.41;101344.16;5098053;28;8849;-56
2024/01/28 06:50:43;;;;;;;;;0.00;0.00;;;;;-0.42;81.96;101329.34;5097944;28;9573;-56
2024/01/28 06:53:11;;;;;;;;;0.80;0.80;;;;;-0.41;81.59;101340.66;5097523;28;8849;-54
2024/01/28 06:55:38;;;;;;;;;0.00;0.00;;;;;-0.39;82.20;101334.53;5097963;28;8844;-57
2024/01/28 06:58:06;;;;;;;;;0.20;0.20;;;;;-0.36;81.57;101336.25;5098173;28;8851;-56
2024/01/28 07:00:34;;;;;;;;;0.00;0.00;;;;;-0.33;81.83;101338.84;5098072;28;8825;-56
2024/01/28 07:03:02;;;;;;;;;0.00;0.00;;;;;-0.31;81.80;101342.28;5098063;28;8821;-56
2024/01/28 07:05:30;;;;;;;;;0.40;0.40;;;;;-0.29;81.37;101340.50;5097642;28;9521;-55
2024/01/28 07:07:57;;;;;;;;;1.00;1.00;;;;;-0.27;81.62;101341.34;5097799;28;8834;-57
2024/01/28 07:10:25;;;;;;;;;0.60;0.60;;;;;-0.20;82.09;101340.38;5098135;28;8872;-56
2024/01/28 07:12:55;;;;;;;;;0.20;0.20;;;;;-0.18;80.85;101342.09;5097639;28;8817;-56
2024/01/28 07:15:23;;;;;;;;;0.00;0.00;;;;;-0.16;81.72;101342.09;5097823;28;9600;-56
2024/01/28 07:17:51;;;;;;;;;0.00;0.00;;;;;-0.16;81.69;101349.94;5097341;28;8844;-56
2024/01/28 07:20:19;;;;;;;;;1.00;0.60;;;;;-0.15;81.15;101342.06;5097752;28;8828;-56
2024/01/28 07:22:46;;;;;;;;;1.00;1.00;;;;;-0.14;81.08;101335.06;5097792;28;8816;-54
2024/01/28 07:25:14;;;;;;;;;0.40;0.40;;;;;-0.13;81.49;101335.91;5097468;28;8847;-55
2024/01/28 07:27:42;;;;;;;;;0.00;0.00;;;;;-0.10;81.61;101331.53;5097494;28;9555;-55
2024/01/28 07:30:10;;;;;;;;;0.00;0.00;;;;;-0.07;81.29;101327.97;5098051;28;8940;-56
2024/01/28 07:32:38;;;;;;;;;0.00;0.00;;;;;-0.03;81.20;101327.94;5097580;28;8831;-56
2024/01/28 07:35:05;;;;;;;;;0.00;0.00;;;;;-0.03;81.01;101321.81;5096345;28;8824;-56
2024/01/28 07:37:33;;;;;;;;;1.00;0.40;;;;;0.00;80.88;101332.22;5096997;28;8858;-57
2024/01/28 07:40:01;;;;;;;;;0.00;0.00;;;;;0.03;81.30;101331.31;5097315;28;9607;-54
2024/01/28 07:42:29;;;;;;;;;0.00;0.00;;;;;0.07;81.25;101322.50;5096833;28;8850;-55
2024/01/28 07:44:56;;;;;;;;;0.40;0.40;;;;;0.10;81.07;101323.34;5097504;28;8812;-56
2024/01/28 07:47:24;;;;;;;;;0.60;0.60;;;;;0.15;81.32;101318.03;5097004;28;8866;-57
2024/01/28 07:49:52;;;;;;;;;0.20;0.00;;;;;0.19;81.28;101322.34;5097501;28;8958;-55
2024/01/28 07:52:20;;;;;;;;;3.00;1.00;;;;;0.24;81.32;101308.28;5095986;28;8831;-56
2024/01/28 07:54:48;;;;;;;;;0.20;0.00;;;;;0.29;80.99;101308.19;5096479;28;8919;-55
2024/01/28 07:57:16;;;;;;;;;0.00;0.00;;;;;0.33;80.18;101308.13;5096066;28;8830;-55
2024/01/28 07:59:43;;;;;;;;;0.00;0.00;;;;;0.36;80.53;101304.59;5096958;28;8852;-55
2024/01/28 08:02:11;;;;;;;;;0.00;0.00;;;;;0.36;80.57;101307.22;5096214;28;8812;-54
2024/01/28 08:04:39;;;;;;;;;0.40;0.00;;;;;0.38;80.28;101314.16;5096092;28;8879;-56
2024/01/28 08:07:07;;;;;;;;;0.00;0.00;;;;;0.40;80.72;101303.66;5096677;28;8820;-57
2024/01/28 08:09:36;;;;;;;;;1.80;1.00;;;;;0.44;80.16;101321.91;5096707;28;8832;-56
2024/01/28 08:12:04;;;;;;;;;0.00;0.00;;;;;0.49;80.93;101314.84;5095978;28;8828;-55
2024/01/28 08:14:32;;;;;;;;;0.00;0.00;;;;;0.56;80.17;101313.00;5096143;28;8847;-57
2024/01/28 08:17:00;;;;;;;;;0.00;0.00;;;;;0.61;79.92;101312.00;5096149;28;8869;-56
2024/01/28 08:19:27;;;;;;;;;0.00;0.00;;;;;0.68;80.35;101310.16;5096714;28;8829;-57
2024/01/28 08:21:55;;;;;;;;;1.40;1.40;;;;;0.74;80.06;101310.91;5096644;28;8955;-57
2024/01/28 08:24:23;;;;;;;;;0.00;0.00;;;;;0.82;80.00;101298.53;5096429;28;8980;-55
2024/01/28 08:26:51;;;;;;;;;0.00;0.00;;;;;0.90;79.68;101304.50;5096221;28;9494;-56
2024/01/28 08:29:19;;;;;;;;;1.00;1.00;;;;;0.98;79.91;101305.19;5095087;28;8852;-55
2024/01/28 08:31:46;;;;;;;;;3.40;3.00;;;;;1.06;80.04;101298.06;5096405;28;8887;-57
2024/01/28 08:34:14;;;;;;;;;0.00;0.00;;;;;1.16;79.72;101307.44;5096772;28;9519;-57
2024/01/28 08:36:42;;;;;;;;;1.40;0.40;;;;;1.25;79.74;101309.91;5095950;28;8857;-55
2024/01/28 08:39:10;;;;;;;;;0.20;0.20;;;;;1.39;79.17;101300.00;5096057;28;8822;-55
2024/01/28 08:41:40;;;;;;;;;1.40;1.00;;;;;1.57;78.87;101294.38;5095857;28;8956;-57
2024/01/28 08:44:08;;;;;;;;;1.00;1.00;;;;;1.74;78.99;101284.34;5095636;28;8818;-57
2024/01/28 08:46:35;;;;;;;;;1.00;1.00;;;;;1.86;79.04;101276.22;5095813;28;8842;-56
2024/01/28 08:49:03;;;;;;;;;1.00;1.00;;;;;2.00;78.40;101275.88;5095898;28;8810;-54
2024/01/28 08:51:31;;;;;;;;;5.20;5.20;;;;;2.12;78.19;101273.81;5096380;28;8941;-57
2024/01/28 08:53:59;;;;;;;;;1.00;1.00;;;;;2.21;78.25;101278.84;5096225;28;8841;-57
2024/01/28 08:56:27;;;;;;;;;1.00;1.00;;;;;2.32;78.09;101284.72;5096366;28;8814;-57
2024/01/28 08:58:55;;;;;;;;;1.00;1.00;;;;;2.42;77.50;101282.72;5095448;28;8818;-55
2024/01/28 09:01:22;;;;;;;;;0.80;0.80;;;;;2.50;77.70;101276.34;5094730;28;8943;-54
2024/01/28 09:03:50;;;;;;;;;1.00;1.00;;;;;2.57;77.42;101269.19;5095044;28;8834;-55
2024/01/28 09:06:18;;;;;;;;;1.40;1.00;;;;;2.65;77.39;101262.81;5095892;28;8825;-54
2024/01/28 09:08:46;;;;;;;;;1.20;1.20;;;;;2.75;77.60;101266.94;5095316;28;8829;-56
2024/01/28 09:11:14;;;;;;;;;1.60;1.40;;;;;2.86;77.18;101261.34;5095431;28;8964;-55
2024/01/28 09:13:42;;;;;;;;;2.60;1.40;;;;;2.96;77.24;101250.53;5095397;28;8921;-55
2024/01/28 09:16:10;;;;;;;;;0.00;0.00;;;;;3.05;77.33;101258.19;5095291;28;8853;-56
2024/01/28 09:18:42;;;;;;;;;1.00;1.00;;;;;3.11;77.15;101246.63;5095409;28;9476;-57
2024/01/28 09:21:10;;;;;;;;;3.00;2.60;;;;;3.18;76.75;101254.28;5095296;28;8906;-55
2024/01/28 09:23:38;;;;;;;;;0.80;0.80;;;;;3.26;77.39;101252.31;5094791;28;8838;-57
2024/01/28 09:26:06;;;;;;;;;0.00;0.00;;;;;3.32;76.84;101243.41;5094304;28;8858;-55
2024/01/28 09:28:37;;;;;;;;;0.00;0.00;;;;;3.39;76.63;101243.16;5088625;28;8814;-56
2024/01/28 09:31:05;;;;;;;;;2.20;2.20;;;;;3.47;76.91;101240.31;5074626;28;8852;-56
2024/01/28 09:33:33;;;;;;;;;1.00;1.00;;;;;3.56;76.86;101240.03;5074666;28;8814;-57
2024/01/28 09:36:01;;;;;;;;;1.40;1.40;;;;;3.65;76.41;101243.25;5075112;28;8848;-55
2024/01/28 09:38:29;;;;;;;;;3.00;1.00;;;;;3.74;76.37;101242.94;5075378;28;9636;-57
2024/01/28 09:40:57;;;;;;;;;1.00;1.00;;;;;3.82;76.17;101239.16;5074979;28;8940;-57
2024/01/28 09:43:26;;;;;;;;;1.00;1.00;;;;;3.88;75.88;101231.06;5075272;28;9471;-56
2024/01/28 09:45:53;;;;;;;;;1.00;1.00;;;;;3.96;76.37;101229.03;5074924;28;8809;-56
2024/01/28 09:48:21;;;;;;;;;2.60;1.40;;;;;4.05;76.34;101225.25;5075033;28;8830;-54
2024/01/28 09:50:49;;;;;;;;;3.40;3.40;;;;;4.13;76.04;101224.06;5074221;28;8897;-57
2024/01/28 09:53:17;;;;;;;;;2.60;2.60;;;;;4.25;76.27;101222.84;5074743;28;8814;-55
2024/01/28 09:55:48;;;;;;;;;5.80;5.80;;;;;4.36;75.48;101229.47;5075147;28;8826;-57
2024/01/28 09:58:15;;;;;;;;;6.80;6.00;;;;;4.47;75.36;101229.06;5077291;28;8807;-56
2024/01/28 10:00:43;;;;;;;;;4.40;4.20;;;;;4.58;75.54;101233.06;5085070;28;9586;-57
2024/01/28 10:03:11;;;;;;;;;7.80;7.80;;;;;4.69;75.35;101232.69;5099030;28;8826;-57
2024/01/28 10:05:39;;;;;;;;;10.20;8.80;;;;;4.84;74.96;101225.09;5099238;28;8810;-57
2024/01/28 10:08:07;;;;;;;;;7.40;7.00;;;;;5.04;74.68;101219.09;5098168;28;8891;-57
2024/01/28 10:10:35;;;;;;;;;4.40;4.40;;;;;5.35;74.66;101214.41;5097777;28;8830;-57
2024/01/28 10:13:03;;;;;;;;;0.40;0.40;;;;;5.67;73.79;101220.16;5098759;28;8822;-57
2024/01/28 10:15:30;;;;;;;;;0.60;0.60;;;;;6.09;73.00;101207.03;5103665;28;8822;-55
2024/01/28 10:18:00;;;;;;;;;0.20;0.20;;;;;6.54;72.81;101192.72;5103309;28;9760;-57
2024/01/28 10:20:30;;;;;;;;;1.00;1.00;;;;;7.02;72.08;101193.22;5101004;28;8863;-57
2024/01/28 10:22:58;;;;;;;;;1.00;1.00;;;;;7.54;71.52;101194.31;5098774;28;8817;-57
2024/01/28 10:25:29;;;;;;;;;2.00;2.00;;;;;8.03;70.64;101192.75;5098570;28;8832;-57
2024/01/28 10:27:58;;;;;;;;;0.50;0.50;;;;;8.58;70.58;101188.22;5098265;28;8943;-57
2024/01/28 10:30:26;;;;;;;;;0.75;0.75;;;;;9.24;69.65;101168.66;5098311;28;8818;-57
2024/01/28 10:32:54;;;;;;;;;1.50;1.00;;;;;10.10;67.81;101177.97;5098978;28;8825;-57
2024/01/28 10:35:22;;;;;;;;;1.00;0.75;;;;;11.23;65.72;101166.56;5098448;28;8912;-58
2024/01/28 10:37:49;;;;;;;;;0.00;0.00;;;;;12.47;62.80;101160.94;5098992;28;8841;-58
2024/01/28 10:40:17;;;;;;;;;1.00;1.00;;;;;13.71;61.38;101153.81;5098464;28;8972;-58
2024/01/28 10:42:45;;;;;;;;;0.00;0.00;;;;;14.70;58.71;101156.94;5098657;28;8848;-56
2024/01/28 10:45:13;;;;;;;;;0.00;0.00;;;;;15.36;58.17;101151.69;5098250;28;8828;-58
2024/01/28 10:47:41;;;;;;;;;0.00;0.00;;;;;15.85;57.88;101144.06;5098048;28;8880;-57
2024/01/28 10:50:09;;;;;;;;;0.00;0.00;;;;;16.23;57.52;101136.38;5097982;28;8837;-59
2024/01/28 10:52:37;;;;;;;;;1.00;1.00;;;;;16.72;57.03;101134.78;5096966;28;8821;-59
2024/01/28 10:55:05;;;;;;;;;1.00;1.00;;;;;17.23;56.95;101124.88;5097521;28;8858;-58
2024/01/28 10:57:33;;;;;;;;;0.20;0.20;;;;;17.65;56.40;101124.63;5096914;28;8833;-59
2024/01/28 11:00:01;;;;;;;;;0.00;0.00;;;;;18.03;56.45;101119.28;5096923;28;8839;-57
2024/01/28 11:02:28;;;;;;;;;0.20;0.20;;;;;18.45;55.66;101115.34;5097263;28;8912;-58
2024/01/28 11:05:00;;;;;;;;;0.60;0.60;;;;;18.91;55.07;101107.28;5097429;28;8828;-59
2024/01/28 11:07:28;;;;;;;;;1.00;1.00;;;;;19.20;54.64;101109.94;5097261;28;8824;-58
2024/01/28 11:09:56;;;;;;;;;0.80;0.80;;;;;19.65;54.78;101110.84;5096820;28;8836;-59
2024/01/28 11:12:24;;;;;;;;;0.00;0.00;;;;;19.80;54.23;101107.47;5096777;28;8847;-59
2024/01/28 11:14:53;;;;;;;;;0.00;0.00;;;;;19.62;55.11;101101.19;5096789;28;8904;-59
2024/01/28 11:17:22;;;;;;;;;1.00;1.00;;;;;19.48;56.17;101098.13;5097159;28;8827;-58
2024/01/28 11:19:49;;;;;;;;;0.00;0.00;;;;;19.69;55.66;101094.19;5096914;28;9567;-59
2024/01/28 11:22:18;;;;;;;;;0.20;0.20;;;;;20.04;54.70;101088.78;5097223;28;9508;-58
2024/01/28 11:24:46;;;;;;;;;1.00;1.00;;;;;20.40;54.59;101089.66;5097158;28;8823;-57
2024/01/28 11:27:14;;;;;;;;;0.00;0.00;;;;;20.75;53.86;101090.44;5096348;28;8835;-58
2024/01/28 11:29:42;;;;;;;;;1.00;1.00;;;;;21.16;53.13;101084.28;5095530;28;8807;-57
2024/01/28 11:32:09;;;;;;;;;1.00;1.00;;;;;21.38;52.75;101086.41;5095208;28;8833;-58
2024/01/28 11:34:38;;;;;;;;;1.00;1.00;;;;;21.54;52.61;101086.47;5096475;28;8849;-57
2024/01/28 11:37:07;;;;;;;;;2.60;1.00;;;;;21.54;52.79;101086.47;5096704;28;8833;-57
2024/01/28 11:39:35;;;;;;;;;0.60;0.60;;;;;21.61;52.89;101088.38;5096930;28;8939;-57